Fordland, Missouri
Current Conditions -  °F | °C
As of 10:52 PM on Tuesday 21 Oct 2014 (Local Time) from KSGF Reporting Station
Clear Clear  
Wind Chill: 55°   Ceiling: Unl
Heat Index: 55°   Visibility: 10mi
Dew Point: 45°   Wind: 3mph
Humidity: 69%   Direction: 140°SE
Pressure: 30.13"   Gusts: NA
Location:  37.16°N, 92.94°W
Report Text: KSGF 220352Z 14003KT 10SM CLR 13/07 A3013 RMK AO2 SLP198 T01280072
Loading
Personal Weather Stations






























Interactive Weather Map
Tropical Storm Tracking
New forecast layout! Learn more

10-Day Weather Forecast

Advertisements
Track Severe Weather on mobile